createdAt,value
2023-03-30T00:01:03.043Z,24.10
2023-03-30T00:03:29.915Z,24.60
2023-03-30T00:05:57.058Z,24.20
2023-03-30T00:08:28.387Z,24.10
2023-03-30T00:11:05.911Z,24.20
2023-03-30T00:13:33.975Z,24.90
2023-03-30T00:16:01.281Z,24.50
2023-03-30T00:18:29.843Z,24.90
2023-03-30T00:20:58.706Z,24.70
2023-03-30T00:23:26.064Z,24.00
2023-03-30T00:25:52.793Z,24.50
2023-03-30T00:28:19.395Z,24.20
2023-03-30T00:30:46.999Z,23.60
2023-03-30T00:33:13.587Z,23.50
2023-03-30T00:35:40.921Z,23.60
2023-03-30T00:38:07.637Z,23.50
2023-03-30T00:40:35.026Z,23.20
2023-03-30T00:43:02.794Z,23.30
2023-03-30T00:45:38.811Z,23.50
2023-03-30T00:48:07.412Z,23.60
2023-03-30T00:50:43.158Z,23.20
2023-03-30T00:53:12.576Z,23.10
2023-03-30T00:55:40.223Z,22.90
2023-03-30T00:58:07.260Z,23.20
2023-03-30T01:00:34.248Z,23.30
2023-03-30T01:03:04.350Z,23.00
2023-03-30T01:05:31.367Z,23.20
2023-03-30T01:07:58.464Z,23.60
2023-03-30T01:10:25.494Z,23.50
2023-03-30T01:12:52.339Z,22.90
2023-03-30T01:15:19.289Z,23.20
2023-03-30T01:17:49.547Z,23.10
2023-03-30T01:20:31.389Z,23.50
2023-03-30T01:22:58.958Z,22.60
2023-03-30T01:25:26.189Z,22.40
2023-03-30T01:27:52.868Z,22.90
2023-03-30T01:30:22.323Z,22.80
2023-03-30T01:32:52.010Z,22.90
2023-03-30T01:35:27.911Z,23.40
2023-03-30T01:38:08.306Z,23.60
2023-03-30T01:40:45.566Z,24.30
2023-03-30T01:43:27.871Z,26.30
2023-03-30T01:46:01.169Z,25.80
2023-03-30T01:48:29.287Z,26.20
2023-03-30T01:50:59.543Z,25.20
2023-03-30T01:53:35.679Z,25.10
2023-03-30T01:56:06.868Z,25.10
2023-03-30T01:58:59.970Z,25.20
2023-03-30T02:01:28.072Z,25.80
2023-03-30T02:03:57.910Z,25.10
2023-03-30T02:06:39.797Z,25.20
2023-03-30T02:09:08.124Z,25.20
2023-03-30T02:11:35.690Z,25.60
2023-03-30T02:14:03.366Z,25.10
2023-03-30T02:16:38.653Z,25.20
2023-03-30T02:19:06.372Z,25.20
2023-03-30T02:21:33.010Z,25.90
2023-03-30T02:24:00.716Z,26.20
2023-03-30T02:26:29.482Z,26.30
2023-03-30T02:28:56.192Z,27.90
2023-03-30T02:31:23.148Z,27.80
2023-03-30T02:34:00.169Z,29.60
2023-03-30T02:36:39.756Z,28.40
2023-03-30T02:39:06.356Z,29.60
2023-03-30T02:41:36.013Z,29.80
2023-03-30T02:44:12.526Z,29.50
2023-03-30T02:46:46.367Z,30.10
2023-03-30T02:49:21.064Z,30.80
2023-03-30T02:52:05.862Z,29.60
2023-03-30T02:54:38.239Z,29.60
2023-03-30T02:57:07.815Z,29.60
2023-03-30T02:59:37.384Z,29.60
2023-03-30T03:02:12.365Z,29.60
2023-03-30T03:04:43.433Z,30.70
2023-03-30T03:07:11.390Z,30.30
2023-03-30T03:09:38.040Z,29.70
2023-03-30T03:12:05.121Z,30.50
2023-03-30T03:14:31.722Z,30.50
2023-03-30T03:16:58.326Z,32.30
2023-03-30T03:19:24.919Z,35.00
2023-03-30T03:21:51.765Z,37.20
2023-03-30T03:24:18.959Z,38.20
2023-03-30T03:26:46.016Z,38.50
2023-03-30T03:29:12.570Z,38.10
2023-03-30T03:31:39.276Z,39.00
2023-03-30T03:34:06.738Z,39.40
2023-03-30T03:36:33.283Z,40.00
2023-03-30T03:38:59.927Z,39.40
2023-03-30T03:41:26.609Z,39.50
2023-03-30T03:43:53.199Z,39.70
2023-03-30T03:46:19.922Z,40.50
2023-03-30T03:48:46.505Z,41.20
2023-03-30T03:51:13.163Z,41.30
2023-03-30T03:53:39.761Z,41.30
2023-03-30T03:56:06.522Z,42.90
2023-03-30T03:58:33.100Z,44.90
2023-03-30T04:01:00.264Z,46.90
2023-03-30T04:03:27.353Z,47.00
2023-03-30T04:05:54.046Z,46.60
2023-03-30T04:08:21.179Z,47.10
2023-03-30T04:10:47.763Z,47.10
2023-03-30T04:13:14.346Z,47.80
2023-03-30T04:15:41.142Z,47.20
2023-03-30T04:18:09.087Z,46.30
2023-03-30T04:20:35.660Z,47.30
2023-03-30T04:23:02.743Z,47.40
2023-03-30T04:25:29.430Z,51.00
2023-03-30T04:27:56.688Z,52.90
2023-03-30T04:30:23.504Z,52.90
2023-03-30T04:33:05.370Z,54.20
2023-03-30T04:35:32.987Z,55.10
2023-03-30T04:38:00.458Z,55.10
2023-03-30T04:40:27.253Z,55.70
2023-03-30T04:42:54.598Z,55.70
2023-03-30T04:45:21.510Z,54.80
2023-03-30T04:47:48.220Z,55.80
2023-03-30T04:50:14.904Z,57.30
2023-03-30T04:52:41.520Z,59.70
2023-03-30T04:55:09.810Z,61.00
2023-03-30T04:57:36.421Z,62.90
2023-03-30T05:00:06.576Z,63.00
2023-03-30T05:02:33.578Z,64.80
2023-03-30T05:05:00.398Z,66.20
2023-03-30T05:07:27.113Z,68.70
2023-03-30T05:09:53.636Z,70.80
2023-03-30T05:12:20.431Z,71.60
2023-03-30T05:14:46.981Z,73.20
2023-03-30T05:17:13.695Z,75.10
2023-03-30T05:19:40.587Z,75.20
2023-03-30T05:22:07.168Z,77.20
2023-03-30T05:24:34.450Z,78.00
2023-03-30T05:27:02.244Z,79.30
2023-03-30T05:29:28.842Z,79.90
2023-03-30T05:31:55.427Z,79.90
2023-03-30T05:34:22.028Z,82.30
2023-03-30T05:36:48.739Z,83.40
2023-03-30T05:39:15.356Z,86.20
2023-03-30T05:41:41.910Z,87.40
2023-03-30T05:44:08.740Z,88.10
2023-03-30T05:46:35.642Z,88.10
2023-03-30T05:49:02.385Z,88.10
2023-03-30T05:51:28.959Z,89.50
2023-03-30T05:53:55.902Z,90.20
2023-03-30T05:56:23.450Z,90.60
2023-03-30T05:58:50.292Z,91.20
2023-03-30T06:01:17.027Z,91.50
2023-03-30T06:03:43.937Z,91.80
2023-03-30T06:06:10.971Z,92.70
2023-03-30T06:08:37.720Z,92.70
2023-03-30T06:11:04.599Z,92.70
2023-03-30T06:13:31.839Z,92.60
2023-03-30T06:15:59.686Z,92.70
2023-03-30T06:18:28.150Z,92.70
2023-03-30T06:20:54.734Z,92.70
2023-03-30T06:23:23.121Z,92.70
2023-03-30T06:25:53.060Z,92.70
2023-03-30T06:28:20.422Z,92.70
2023-03-30T06:30:49.250Z,92.70
2023-03-30T06:33:16.534Z,92.70
2023-03-30T06:35:50.556Z,92.90
2023-03-30T06:38:17.707Z,92.70
2023-03-30T06:40:44.445Z,93.40
2023-03-30T06:43:15.127Z,93.80
2023-03-30T06:45:42.068Z,94.60
2023-03-30T06:48:08.946Z,94.70
2023-03-30T06:50:36.686Z,95.60
2023-03-30T06:53:04.469Z,96.10
2023-03-30T06:55:31.809Z,96.90
2023-03-30T06:57:58.548Z,97.40
2023-03-30T07:00:25.209Z,97.50
2023-03-30T07:02:51.841Z,97.70
2023-03-30T07:05:18.560Z,98.10
2023-03-30T07:07:45.302Z,98.50
2023-03-30T07:10:12.330Z,99.40
2023-03-30T07:12:40.857Z,99.40
2023-03-30T07:15:08.031Z,99.40
2023-03-30T07:17:34.996Z,99.40
2023-03-30T07:20:02.121Z,99.40
2023-03-30T07:22:28.721Z,98.90
2023-03-30T07:24:55.693Z,98.90
2023-03-30T07:27:25.385Z,99.10
2023-03-30T07:29:53.070Z,99.40
2023-03-30T07:32:19.966Z,99.40
2023-03-30T07:34:47.301Z,99.40
2023-03-30T07:37:20.362Z,99.40
2023-03-30T07:39:47.874Z,99.40
2023-03-30T07:42:14.648Z,99.40
2023-03-30T07:44:41.271Z,99.40
2023-03-30T07:47:07.989Z,99.80
2023-03-30T07:49:34.745Z,99.40
2023-03-30T07:52:01.451Z,99.80
2023-03-30T07:54:28.038Z,99.40
2023-03-30T07:56:54.652Z,99.40
2023-03-30T07:59:22.468Z,99.50
2023-03-30T08:01:54.337Z,99.90
2023-03-30T08:04:22.898Z,99.90
2023-03-30T08:06:52.863Z,99.90
2023-03-30T08:09:19.896Z,99.90
2023-03-30T08:11:46.571Z,99.90
2023-03-30T08:14:13.185Z,99.90
2023-03-30T08:16:39.868Z,99.90
2023-03-30T08:19:06.457Z,99.90
2023-03-30T08:21:33.024Z,99.90
2023-03-30T08:23:59.663Z,99.90
2023-03-30T08:26:26.457Z,99.90
2023-03-30T08:28:53.174Z,99.90
2023-03-30T08:31:21.069Z,99.90
2023-03-30T08:33:48.299Z,99.90
2023-03-30T08:36:15.245Z,99.90
2023-03-30T08:38:42.196Z,99.90
2023-03-30T08:41:43.743Z,99.90
2023-03-30T08:44:21.127Z,99.90
2023-03-30T08:46:49.116Z,99.90
2023-03-30T08:49:17.846Z,99.90
2023-03-30T08:51:44.945Z,99.90
2023-03-30T08:54:16.817Z,99.90
2023-03-30T08:56:47.837Z,99.90
2023-03-30T08:59:17.511Z,99.90
2023-03-30T09:01:44.080Z,99.90
2023-03-30T09:04:37.522Z,99.90
2023-03-30T09:07:09.155Z,99.90
2023-03-30T09:09:40.740Z,99.90
2023-03-30T09:12:19.585Z,99.90
2023-03-30T09:14:55.728Z,99.90
2023-03-30T09:17:32.373Z,99.90
2023-03-30T09:20:07.147Z,99.90
2023-03-30T09:22:41.792Z,99.90
2023-03-30T09:25:31.119Z,99.90
2023-03-30T09:28:06.314Z,99.70
2023-03-30T09:30:37.048Z,99.70
2023-03-30T09:33:13.732Z,98.40
2023-03-30T09:35:48.311Z,97.80
2023-03-30T09:38:14.885Z,97.80
2023-03-30T09:40:44.732Z,98.00
2023-03-30T09:43:11.275Z,98.50
2023-03-30T09:45:38.636Z,99.00
2023-03-30T09:48:07.481Z,99.10
2023-03-30T09:50:52.131Z,99.60
2023-03-30T09:53:18.839Z,99.60
2023-03-30T09:55:59.652Z,99.60
2023-03-30T09:58:27.994Z,99.70
2023-03-30T10:01:05.033Z,99.70
2023-03-30T10:03:32.622Z,99.70
2023-03-30T10:06:05.630Z,99.80
2023-03-30T10:08:33.530Z,97.50
2023-03-30T10:11:01.201Z,96.50
2023-03-30T10:13:32.507Z,96.40
2023-03-30T10:16:03.816Z,97.00
2023-03-30T10:18:41.069Z,97.60
2023-03-30T10:21:13.855Z,97.10
2023-03-30T10:23:42.506Z,97.00
2023-03-30T10:26:16.140Z,96.80
2023-03-30T10:28:56.757Z,97.00
2023-03-30T10:31:27.246Z,97.30
2023-03-30T10:33:59.495Z,96.30
2023-03-30T10:36:30.973Z,71.50
2023-03-30T10:39:16.519Z,50.70
2023-03-30T10:41:43.352Z,56.30
2023-03-30T10:44:16.831Z,58.70
2023-03-30T10:46:43.515Z,65.30
2023-03-30T10:49:20.338Z,71.10
2023-03-30T10:51:55.385Z,73.30
2023-03-30T10:54:33.823Z,76.70
2023-03-30T10:57:17.651Z,80.10
2023-03-30T10:59:44.270Z,82.30
2023-03-30T11:02:29.837Z,79.70
2023-03-30T11:05:06.017Z,77.50
2023-03-30T11:07:35.776Z,82.40
2023-03-30T11:10:11.431Z,82.40
2023-03-30T11:12:42.958Z,81.20
2023-03-30T11:15:13.679Z,74.10
2023-03-30T11:17:54.336Z,73.00
2023-03-30T11:20:27.338Z,68.30
2023-03-30T11:23:06.246Z,67.60
2023-03-30T11:25:52.364Z,71.20
2023-03-30T11:28:24.486Z,69.80
2023-03-30T11:30:54.546Z,67.10
2023-03-30T11:33:27.044Z,63.10
2023-03-30T11:35:55.597Z,58.60
2023-03-30T11:38:41.460Z,56.20
2023-03-30T11:41:20.245Z,55.00
2023-03-30T11:43:47.081Z,53.10
2023-03-30T11:46:13.818Z,55.80
2023-03-30T11:48:55.927Z,53.80
2023-03-30T11:51:41.475Z,53.00
2023-03-30T11:54:27.204Z,56.10
2023-03-30T11:57:13.340Z,53.50
2023-03-30T11:59:49.155Z,54.10
2023-03-30T12:02:24.657Z,52.40
2023-03-30T12:05:11.584Z,50.10
2023-03-30T12:07:38.154Z,48.20
2023-03-30T12:10:08.405Z,48.90
2023-03-30T12:12:39.064Z,47.30
2023-03-30T12:15:05.760Z,49.30
2023-03-30T12:17:44.672Z,45.10
2023-03-30T12:20:33.146Z,45.20
2023-03-30T12:22:59.653Z,42.20
2023-03-30T12:25:32.915Z,42.90
2023-03-30T12:28:03.032Z,43.40
2023-03-30T12:30:30.812Z,36.70
2023-03-30T12:33:02.067Z,39.80
2023-03-30T12:35:47.406Z,36.90
2023-03-30T12:38:17.681Z,29.20
2023-03-30T12:40:49.086Z,29.20
2023-03-30T12:43:34.269Z,28.40
2023-03-30T12:46:08.565Z,27.50
2023-03-30T12:48:49.063Z,25.70
2023-03-30T12:51:31.892Z,17.40
2023-03-30T12:54:08.317Z,1.50
2023-03-30T12:56:42.613Z,1.00
2023-03-30T12:59:18.953Z,1.00
2023-03-30T13:01:50.721Z,1.00
2023-03-30T13:04:25.310Z,1.00
2023-03-30T13:06:54.251Z,1.00
2023-03-30T13:09:23.472Z,1.00
2023-03-30T13:11:53.342Z,1.00
2023-03-30T13:14:35.265Z,1.00
2023-03-30T13:17:01.962Z,1.00
2023-03-30T13:19:28.706Z,1.00
2023-03-30T13:22:18.503Z,1.00
2023-03-30T13:24:46.901Z,1.00
2023-03-30T13:27:13.480Z,1.00
2023-03-30T13:29:40.666Z,1.00
2023-03-30T13:32:18.161Z,1.00
2023-03-30T13:34:58.489Z,1.00
2023-03-30T13:37:41.789Z,1.00
2023-03-30T13:40:09.221Z,1.00
2023-03-30T13:42:45.928Z,1.00
2023-03-30T13:45:33.167Z,1.00
2023-03-30T13:48:02.893Z,1.00
2023-03-30T13:50:31.260Z,1.00
2023-03-30T13:53:00.025Z,1.00
2023-03-30T13:55:37.650Z,1.00
2023-03-30T13:58:06.312Z,1.00
2023-03-30T14:00:33.289Z,1.00
2023-03-30T14:03:15.866Z,1.00
2023-03-30T14:05:42.749Z,1.00
2023-03-30T14:08:10.349Z,1.00
2023-03-30T14:10:37.030Z,1.00
2023-03-30T14:13:04.574Z,1.00
2023-03-30T14:15:35.836Z,1.00
2023-03-30T14:18:03.121Z,1.00
2023-03-30T14:20:45.672Z,1.00
2023-03-30T14:23:24.444Z,1.00
2023-03-30T14:25:57.489Z,1.00
2023-03-30T14:28:26.705Z,1.00
2023-03-30T14:30:57.744Z,1.00
2023-03-30T14:33:25.253Z,1.00
2023-03-30T14:35:53.625Z,1.00
2023-03-30T14:38:22.028Z,1.00
2023-03-30T14:40:49.206Z,1.00
2023-03-30T14:43:16.758Z,1.00
2023-03-30T14:45:43.835Z,1.00
2023-03-30T14:48:16.460Z,1.00
2023-03-30T14:50:43.879Z,1.00
2023-03-30T14:53:10.638Z,1.00
2023-03-30T14:55:38.072Z,1.00
2023-03-30T14:58:05.094Z,1.00
2023-03-30T15:00:31.906Z,1.00
2023-03-30T15:03:00.497Z,1.00
2023-03-30T15:05:29.686Z,1.00
2023-03-30T15:07:56.241Z,1.00
2023-03-30T15:10:25.211Z,1.00
2023-03-30T15:12:54.325Z,1.00
2023-03-30T15:15:24.180Z,1.00
2023-03-30T15:17:51.118Z,1.00
2023-03-30T15:20:18.527Z,1.00
2023-03-30T15:22:46.654Z,1.00
2023-03-30T15:25:15.124Z,1.00
2023-03-30T15:27:43.278Z,1.00
2023-03-30T15:30:19.439Z,1.00
2023-03-30T15:32:46.071Z,1.00
2023-03-30T15:35:15.954Z,1.00
2023-03-30T15:37:56.320Z,1.00
2023-03-30T15:40:27.608Z,1.00
2023-03-30T15:43:13.149Z,1.00
2023-03-30T15:45:40.418Z,1.00
2023-03-30T15:48:09.906Z,1.00
2023-03-30T15:50:37.145Z,1.00
2023-03-30T15:53:03.987Z,1.00
2023-03-30T15:55:31.841Z,1.00
2023-03-30T15:57:59.391Z,1.00
2023-03-30T16:00:31.020Z,1.00
2023-03-30T16:02:58.666Z,1.00
2023-03-30T16:05:27.300Z,1.00
2023-03-30T16:07:54.431Z,1.00
2023-03-30T16:10:24.481Z,1.00
2023-03-30T16:12:52.136Z,1.00
2023-03-30T16:15:20.314Z,1.00
2023-03-30T16:17:47.329Z,1.00
2023-03-30T16:20:17.029Z,1.00
2023-03-30T16:22:43.970Z,1.00
2023-03-30T16:25:10.552Z,1.00
2023-03-30T16:27:37.176Z,1.00
2023-03-30T16:30:13.241Z,1.00
2023-03-30T16:32:39.836Z,1.00
2023-03-30T16:35:06.688Z,1.00
2023-03-30T16:37:33.329Z,1.00
2023-03-30T16:39:59.850Z,1.00
2023-03-30T16:42:29.529Z,1.00
2023-03-30T16:44:56.375Z,1.00
2023-03-30T16:47:23.153Z,1.00
2023-03-30T16:49:49.738Z,1.00
2023-03-30T16:52:16.483Z,1.00
2023-03-30T16:54:43.053Z,1.00
2023-03-30T16:57:10.126Z,1.00
2023-03-30T16:59:36.862Z,1.00
2023-03-30T17:02:03.844Z,1.00
2023-03-30T17:04:30.481Z,1.00
2023-03-30T17:06:57.162Z,1.00
2023-03-30T17:09:23.834Z,1.00
2023-03-30T17:11:50.748Z,1.30
2023-03-30T17:14:17.516Z,1.90
2023-03-30T17:16:44.120Z,2.80
2023-03-30T17:19:12.310Z,3.40
2023-03-30T17:21:40.263Z,4.00
2023-03-30T17:24:06.986Z,4.00
2023-03-30T17:26:33.599Z,4.00
2023-03-30T17:29:00.186Z,4.10
2023-03-30T17:31:26.986Z,4.80
2023-03-30T17:33:53.654Z,4.10
2023-03-30T17:36:24.052Z,4.10
2023-03-30T17:38:51.330Z,4.10
2023-03-30T17:41:19.407Z,4.00
2023-03-30T17:43:47.750Z,4.00
2023-03-30T17:46:16.399Z,4.00
2023-03-30T17:48:43.106Z,4.80
2023-03-30T17:51:09.750Z,5.40
2023-03-30T17:53:36.966Z,5.90
2023-03-30T17:56:03.628Z,6.20
2023-03-30T17:58:34.084Z,6.40
2023-03-30T18:01:01.969Z,7.10
2023-03-30T18:03:31.611Z,7.90
2023-03-30T18:05:59.156Z,7.90
2023-03-30T18:08:26.583Z,8.80
2023-03-30T18:10:53.926Z,10.50
2023-03-30T18:13:21.159Z,9.80
2023-03-30T18:15:49.678Z,9.30
2023-03-30T18:18:22.960Z,9.40
2023-03-30T18:20:51.422Z,8.10
2023-03-30T18:23:18.128Z,8.10
2023-03-30T18:25:44.845Z,8.60
2023-03-30T18:28:16.584Z,9.70
2023-03-30T18:30:43.274Z,9.60
2023-03-30T18:33:09.918Z,11.00
2023-03-30T18:35:37.167Z,11.60
2023-03-30T18:38:04.372Z,11.70
2023-03-30T18:40:33.068Z,12.50
2023-03-30T18:43:00.012Z,12.50
2023-03-30T18:45:34.173Z,12.40
2023-03-30T18:48:01.787Z,13.10
2023-03-30T18:50:31.492Z,14.60
2023-03-30T18:52:58.498Z,15.20
2023-03-30T18:55:25.650Z,15.60
2023-03-30T18:57:52.610Z,16.20
2023-03-30T19:00:24.084Z,17.00
2023-03-30T19:02:50.998Z,16.90
2023-03-30T19:05:18.876Z,17.90
2023-03-30T19:07:45.792Z,18.40
2023-03-30T19:10:13.905Z,19.30
2023-03-30T19:12:40.467Z,20.00
2023-03-30T19:15:07.868Z,21.30
2023-03-30T19:17:34.452Z,21.30
2023-03-30T19:20:01.150Z,21.30
2023-03-30T19:22:27.773Z,21.40
2023-03-30T19:24:54.368Z,22.60
2023-03-30T19:27:21.007Z,23.30
2023-03-30T19:29:47.568Z,24.20
2023-03-30T19:32:14.192Z,24.40
2023-03-30T19:34:40.841Z,25.20
2023-03-30T19:37:07.942Z,25.70
2023-03-30T19:39:34.615Z,25.70
2023-03-30T19:42:01.238Z,26.10
2023-03-30T19:44:27.813Z,26.90
2023-03-30T19:46:54.433Z,27.40
2023-03-30T19:49:21.018Z,27.20
2023-03-30T19:51:47.910Z,28.30
2023-03-30T19:54:14.533Z,28.90
2023-03-30T19:56:41.141Z,29.90
2023-03-30T19:59:08.053Z,29.90
2023-03-30T20:01:34.921Z,30.00
2023-03-30T20:04:01.871Z,30.00
2023-03-30T20:06:28.704Z,30.00
2023-03-30T20:08:55.312Z,30.00
2023-03-30T20:11:22.339Z,30.00
2023-03-30T20:13:49.455Z,30.00
2023-03-30T20:16:21.137Z,30.00
2023-03-30T20:18:50.594Z,30.00
2023-03-30T20:21:18.221Z,30.10
2023-03-30T20:23:45.234Z,31.20
2023-03-30T20:26:11.967Z,31.40
2023-03-30T20:28:38.592Z,33.60
2023-03-30T20:31:05.863Z,35.50
2023-03-30T20:33:32.931Z,38.50
2023-03-30T20:35:59.944Z,40.70
2023-03-30T20:38:26.567Z,41.10
2023-03-30T20:40:54.757Z,42.50
2023-03-30T20:43:25.858Z,42.90
2023-03-30T20:46:09.384Z,43.80
2023-03-30T20:48:42.139Z,44.20
2023-03-30T20:51:13.660Z,45.10
2023-03-30T20:53:41.827Z,44.80
2023-03-30T20:56:12.034Z,45.10
2023-03-30T20:58:39.347Z,46.20
2023-03-30T21:01:15.269Z,46.20
2023-03-30T21:03:44.028Z,47.00
2023-03-30T21:06:12.436Z,47.30
2023-03-30T21:08:39.009Z,48.20
2023-03-30T21:11:07.104Z,48.90
2023-03-30T21:13:34.508Z,50.80
2023-03-30T21:16:03.178Z,51.30
2023-03-30T21:18:29.931Z,51.80
2023-03-30T21:20:56.583Z,52.50
2023-03-30T21:23:25.281Z,55.10
2023-03-30T21:25:59.528Z,55.80
2023-03-30T21:28:29.166Z,56.90
2023-03-30T21:30:56.890Z,57.70
2023-03-30T21:33:24.268Z,57.90
2023-03-30T21:35:51.826Z,58.60
2023-03-30T21:38:19.445Z,58.40
2023-03-30T21:41:07.292Z,58.90
2023-03-30T21:43:35.457Z,59.50
2023-03-30T21:46:04.508Z,59.50
2023-03-30T21:48:32.318Z,57.70
2023-03-30T21:51:03.225Z,59.10
2023-03-30T21:53:30.237Z,57.90
2023-03-30T21:55:56.839Z,57.80
2023-03-30T21:58:23.685Z,58.40
2023-03-30T22:00:58.376Z,59.20
2023-03-30T22:03:35.797Z,59.20
2023-03-30T22:06:03.808Z,58.60
2023-03-30T22:08:30.563Z,57.10
2023-03-30T22:10:57.403Z,57.20
2023-03-30T22:13:24.055Z,57.00
2023-03-30T22:16:01.083Z,56.20
2023-03-30T22:18:28.131Z,56.20
2023-03-30T22:20:58.038Z,56.00
2023-03-30T22:23:24.762Z,56.10
2023-03-30T22:25:51.714Z,55.00
2023-03-30T22:28:18.320Z,55.30
2023-03-30T22:30:44.920Z,55.10
2023-03-30T22:33:12.063Z,55.20
2023-03-30T22:35:43.443Z,55.40
2023-03-30T22:38:10.918Z,55.10
2023-03-30T22:40:39.523Z,55.90
2023-03-30T22:43:06.255Z,57.30
2023-03-30T22:45:32.861Z,57.60
2023-03-30T22:47:59.583Z,57.30
2023-03-30T22:50:27.532Z,57.40
2023-03-30T22:52:54.972Z,56.70
2023-03-30T22:55:22.273Z,56.10
2023-03-30T22:57:51.437Z,55.30
2023-03-30T23:00:18.094Z,55.10
2023-03-30T23:02:45.211Z,54.00
2023-03-30T23:05:14.986Z,53.90
2023-03-30T23:07:43.973Z,52.80
2023-03-30T23:10:12.133Z,52.00
2023-03-30T23:12:38.655Z,52.90
2023-03-30T23:15:05.528Z,51.90
2023-03-30T23:17:32.297Z,52.30
2023-03-30T23:19:58.919Z,52.50
2023-03-30T23:22:26.620Z,52.00
2023-03-30T23:24:53.230Z,51.50
2023-03-30T23:27:19.946Z,50.80
2023-03-30T23:29:46.522Z,50.60
2023-03-30T23:32:13.117Z,51.50
2023-03-30T23:34:39.687Z,50.60
2023-03-30T23:37:06.270Z,51.60
2023-03-30T23:39:33.065Z,51.90
2023-03-30T23:41:59.765Z,51.90
2023-03-30T23:44:27.994Z,52.30
2023-03-30T23:46:54.672Z,53.30
2023-03-30T23:49:21.621Z,53.80
2023-03-30T23:51:48.212Z,53.70
2023-03-30T23:54:15.786Z,54.20
2023-03-30T23:56:43.142Z,54.40
2023-03-30T23:59:10.816Z,55.30
